Everton, United Kingdom
Current Conditions -  °F | °C
As of 7:50 PM on Sunday 21 Dec 2014 (Local Time) from EGCN Reporting Station
Few Clouds Few Clouds  
Wind Chill: 55°   Ceiling: Unl
Heat Index: 55°   Visibility: 6mi
Dew Point: 48°   Wind: 14mph
Humidity: 77%   Direction: 190°S
Pressure: 29.97"   Gusts: NA
Location:  53.4°N, 0.9°W
Report Text: EGCN 211950Z 19012KT 9999 FEW024 13/09 Q1015
Loading
Personal Weather Stations






























Interactive Weather Map New forecast layout! Learn more

10-Day Weather Forecast

Advertisements
Track Severe Weather on mobile